createdAt,value
2018-12-08T00:01:35.695Z,36.73
2018-12-08T00:04:04.302Z,34.93
2018-12-08T00:06:32.781Z,20.47
2018-12-08T00:09:01.161Z,25.23
2018-12-08T00:11:29.568Z,19.37
2018-12-08T00:13:57.931Z,26.37
2018-12-08T00:16:26.444Z,23.37
2018-12-08T00:18:54.819Z,21.43
2018-12-08T00:21:23.255Z,20.73
2018-12-08T00:23:51.619Z,19.47
2018-12-08T00:26:20.189Z,17.37
2018-12-08T00:28:48.612Z,26.97
2018-12-08T00:31:28.612Z,25.50
2018-12-08T00:33:56.986Z,20.33
2018-12-08T00:36:26.051Z,14.20
2018-12-08T00:38:54.446Z,23.20
2018-12-08T00:41:22.803Z,21.70
2018-12-08T00:43:51.213Z,20.90
2018-12-08T00:46:19.842Z,23.17
2018-12-08T00:48:48.311Z,19.30
2018-12-08T00:51:16.671Z,18.87
2018-12-08T00:53:45.079Z,20.00
2018-12-08T00:56:13.444Z,17.30
2018-12-08T00:58:41.845Z,12.03
2018-12-08T01:01:10.282Z,14.73
2018-12-08T01:03:38.620Z,25.13
2018-12-08T01:06:07.036Z,18.77
2018-12-08T01:08:35.448Z,13.70
2018-12-08T01:11:03.934Z,18.07
2018-12-08T01:13:32.390Z,24.53
2018-12-08T01:16:00.747Z,19.57
2018-12-08T01:18:29.179Z,17.70
2018-12-08T01:20:57.546Z,16.00
2018-12-08T01:23:25.926Z,22.63
2018-12-08T01:25:54.310Z,16.50
2018-12-08T01:28:22.718Z,18.47
2018-12-08T01:30:51.145Z,14.17
2018-12-08T01:33:19.537Z,22.37
2018-12-08T01:35:47.996Z,19.17
2018-12-08T01:38:16.363Z,16.63
2018-12-08T01:40:44.732Z,19.03
2018-12-08T01:43:13.166Z,19.50
2018-12-08T01:45:41.570Z,21.97
2018-12-08T01:48:10.003Z,18.27
2018-12-08T01:50:38.510Z,15.87
2018-12-08T01:53:06.889Z,25.83
2018-12-08T01:55:35.624Z,15.33
2018-12-08T01:58:04.135Z,21.43
2018-12-08T02:00:32.539Z,19.93
2018-12-08T02:03:01.007Z,24.43
2018-12-08T02:05:29.410Z,18.57
2018-12-08T02:07:57.879Z,15.67
2018-12-08T02:10:26.296Z,19.07
2018-12-08T02:12:54.755Z,14.47
2018-12-08T02:15:23.164Z,19.60
2018-12-08T02:17:51.527Z,19.90
2018-12-08T02:20:20.016Z,23.83
2018-12-08T02:22:48.383Z,20.23
2018-12-08T02:25:16.987Z,16.40
2018-12-08T02:27:45.361Z,14.20
2018-12-08T02:30:14.313Z,19.63
2018-12-08T02:32:42.732Z,20.07
2018-12-08T02:35:11.136Z,19.70
2018-12-08T02:37:39.548Z,28.87
2018-12-08T02:40:09.159Z,16.10
2018-12-08T02:42:37.552Z,15.03
2018-12-08T02:45:06.198Z,22.80
2018-12-08T02:47:34.587Z,16.57
2018-12-08T02:50:03.164Z,17.57
2018-12-08T02:52:31.530Z,20.50
2018-12-08T02:54:59.883Z,19.00
2018-12-08T02:57:28.301Z,27.73
2018-12-08T02:59:56.703Z,22.70
2018-12-08T03:02:25.326Z,14.60
2018-12-08T03:04:53.719Z,14.63
2018-12-08T03:07:22.140Z,20.53
2018-12-08T03:09:50.517Z,14.03
2018-12-08T03:12:18.907Z,20.50
2018-12-08T03:14:47.399Z,15.63
2018-12-08T03:17:15.872Z,16.00
2018-12-08T03:19:44.385Z,12.93
2018-12-08T03:22:12.773Z,20.40
2018-12-08T03:24:41.183Z,15.87
2018-12-08T03:27:09.897Z,18.33
2018-12-08T03:29:38.260Z,16.30
2018-12-08T03:32:06.732Z,17.43
2018-12-08T03:34:35.190Z,12.60
2018-12-08T03:37:03.683Z,19.90
2018-12-08T03:39:32.083Z,19.67
2018-12-08T03:42:00.455Z,21.97
2018-12-08T03:44:29.090Z,15.07
2018-12-08T03:46:57.451Z,16.13
2018-12-08T03:49:25.842Z,15.03
2018-12-08T03:51:54.244Z,12.20
2018-12-08T03:54:22.637Z,18.97
2018-12-08T03:56:50.994Z,20.47
2018-12-08T03:59:19.421Z,15.17
2018-12-08T04:01:47.793Z,9.00
2018-12-08T04:04:16.169Z,15.20
2018-12-08T04:06:45.269Z,18.17
2018-12-08T04:09:14.118Z,16.30
2018-12-08T04:11:43.974Z,12.60
2018-12-08T04:14:13.691Z,18.20
2018-12-08T04:16:43.445Z,21.87
2018-12-08T04:19:12.159Z,17.97
2018-12-08T04:21:40.620Z,19.23
2018-12-08T04:24:09.055Z,25.17
2018-12-08T04:26:37.491Z,16.73
2018-12-08T04:29:05.904Z,17.40
2018-12-08T04:31:34.346Z,21.97
2018-12-08T04:34:02.728Z,21.40
2018-12-08T04:36:31.168Z,18.70
2018-12-08T04:38:59.576Z,15.63
2018-12-08T04:41:28.157Z,13.90
2018-12-08T04:43:56.574Z,13.43
2018-12-08T04:46:24.979Z,13.70
2018-12-08T04:48:53.515Z,21.80
2018-12-08T04:51:21.952Z,19.13
2018-12-08T04:53:51.106Z,23.17
2018-12-08T04:56:20.242Z,13.00
2018-12-08T04:58:48.620Z,13.20
2018-12-08T05:01:17.007Z,24.80
2018-12-08T05:03:45.388Z,17.80
2018-12-08T05:06:15.302Z,31.27
2018-12-08T05:08:43.815Z,22.33
2018-12-08T05:11:13.996Z,17.80
2018-12-08T05:13:47.450Z,21.53
2018-12-08T05:16:15.839Z,21.53
2018-12-08T05:18:45.676Z,25.97
2018-12-08T05:21:14.491Z,27.30
2018-12-08T05:23:44.355Z,16.13
2018-12-08T05:26:14.723Z,21.33
2018-12-08T05:28:43.671Z,30.57
2018-12-08T05:31:13.167Z,21.60
2018-12-08T05:33:41.707Z,17.87
2018-12-08T05:36:10.215Z,17.30
2018-12-08T05:38:38.637Z,22.70
2018-12-08T05:41:07.071Z,18.33
2018-12-08T05:43:35.475Z,20.47
2018-12-08T05:46:04.195Z,24.03
2018-12-08T05:48:32.654Z,19.93
2018-12-08T05:51:01.068Z,19.00
2018-12-08T05:53:29.488Z,15.07
2018-12-08T05:55:57.965Z,24.70
2018-12-08T05:58:26.430Z,23.17
2018-12-08T06:00:54.883Z,23.97
2018-12-08T06:03:23.321Z,20.33
2018-12-08T06:05:51.732Z,24.70
2018-12-08T06:08:20.145Z,23.70
2018-12-08T06:10:48.621Z,18.63
2018-12-08T06:13:19.250Z,24.37
2018-12-08T06:15:48.584Z,17.60
2018-12-08T06:18:17.137Z,26.90
2018-12-08T06:20:45.494Z,27.93
2018-12-08T06:23:13.856Z,29.60
2018-12-08T06:25:42.215Z,26.50
2018-12-08T06:28:26.684Z,26.00
2018-12-08T06:30:55.747Z,26.57
2018-12-08T06:33:24.111Z,18.87
2018-12-08T06:35:52.455Z,23.87
2018-12-08T06:38:20.846Z,31.90
2018-12-08T06:40:49.246Z,24.93
2018-12-08T06:43:17.628Z,24.63
2018-12-08T06:45:46.006Z,25.03
2018-12-08T06:48:14.384Z,26.20
2018-12-08T06:50:42.782Z,20.67
2018-12-08T06:53:11.149Z,25.97
2018-12-08T06:55:39.599Z,19.23
2018-12-08T06:58:08.053Z,21.17
2018-12-08T07:00:36.411Z,21.13
2018-12-08T07:03:04.835Z,36.90
2018-12-08T07:05:33.197Z,20.87
2018-12-08T07:08:01.580Z,23.90
2018-12-08T07:10:29.963Z,22.17
2018-12-08T07:12:58.358Z,24.73
2018-12-08T07:15:26.693Z,27.60
2018-12-08T07:17:55.096Z,19.27
2018-12-08T07:20:23.451Z,19.27
2018-12-08T07:22:52.024Z,25.63
2018-12-08T07:25:20.415Z,21.40
2018-12-08T07:27:48.779Z,20.50
2018-12-08T07:30:17.154Z,21.33
2018-12-08T07:32:45.500Z,20.73
2018-12-08T07:35:13.954Z,21.77
2018-12-08T07:37:42.320Z,19.93
2018-12-08T07:40:10.776Z,21.23
2018-12-08T07:42:39.135Z,25.37
2018-12-08T07:45:08.034Z,24.83
2018-12-08T07:47:36.619Z,25.60
2018-12-08T07:50:07.470Z,23.13
2018-12-08T07:52:36.051Z,24.37
2018-12-08T07:55:05.718Z,26.43
2018-12-08T07:57:34.090Z,32.77
2018-12-08T08:00:04.528Z,31.87
2018-12-08T08:02:32.932Z,30.43
2018-12-08T08:05:01.472Z,30.33
2018-12-08T08:07:29.834Z,24.40
2018-12-08T08:09:58.255Z,25.07
2018-12-08T08:12:26.626Z,24.70
2018-12-08T08:14:54.987Z,21.87
2018-12-08T08:17:23.379Z,23.63
2018-12-08T08:19:51.748Z,23.23
2018-12-08T08:22:20.099Z,24.97
2018-12-08T08:24:48.486Z,22.13
2018-12-08T08:27:16.850Z,19.13
2018-12-08T08:29:45.269Z,24.87
2018-12-08T08:32:13.719Z,26.13
2018-12-08T08:34:42.090Z,26.80
2018-12-08T08:37:10.471Z,23.40
2018-12-08T08:39:38.827Z,22.37
2018-12-08T08:42:07.246Z,17.20
2018-12-08T08:44:36.634Z,20.33
2018-12-08T08:47:05.123Z,21.30
2018-12-08T08:49:33.500Z,16.90
2018-12-08T08:52:01.911Z,22.17
2018-12-08T08:54:30.278Z,20.93
2018-12-08T08:56:58.795Z,20.47
2018-12-08T08:59:27.206Z,21.77
2018-12-08T09:01:55.630Z,17.23
2018-12-08T09:04:24.023Z,22.70
2018-12-08T09:06:52.367Z,19.00
2018-12-08T09:09:20.764Z,16.27
2018-12-08T09:11:49.119Z,22.37
2018-12-08T09:14:17.487Z,20.93
2018-12-08T09:16:45.842Z,16.03
2018-12-08T09:19:14.264Z,20.50
2018-12-08T09:21:42.648Z,19.07
2018-12-08T09:24:11.037Z,18.93
2018-12-08T09:26:39.967Z,15.10
2018-12-08T09:29:08.316Z,17.30
2018-12-08T09:31:36.743Z,20.13
2018-12-08T09:34:05.207Z,13.57
2018-12-08T09:36:33.587Z,17.37
2018-12-08T09:39:02.340Z,17.53
2018-12-08T09:41:30.720Z,20.20
2018-12-08T09:43:59.107Z,23.53
2018-12-08T09:46:27.479Z,18.83
2018-12-08T09:48:55.841Z,18.80
2018-12-08T09:51:24.257Z,14.83
2018-12-08T09:53:52.687Z,15.50
2018-12-08T09:56:21.112Z,18.87
2018-12-08T09:58:49.535Z,22.97
2018-12-08T10:01:17.919Z,17.07
2018-12-08T10:03:46.392Z,15.43
2018-12-08T10:06:14.759Z,13.07
2018-12-08T10:08:43.208Z,16.43
2018-12-08T10:11:11.555Z,15.10
2018-12-08T10:13:39.923Z,17.57
2018-12-08T10:16:08.327Z,17.43
2018-12-08T10:18:36.695Z,14.80
2018-12-08T10:21:05.160Z,12.00
2018-12-08T10:23:33.527Z,15.13
2018-12-08T10:26:01.958Z,13.10
2018-12-08T10:28:30.316Z,15.27
2018-12-08T10:30:58.736Z,18.07
2018-12-08T10:33:28.231Z,20.37
2018-12-08T10:35:56.832Z,13.87
2018-12-08T10:38:25.226Z,20.47
2018-12-08T10:40:53.633Z,16.70
2018-12-08T10:43:22.087Z,15.57
2018-12-08T10:45:50.505Z,17.73
2018-12-08T10:48:18.851Z,17.93
2018-12-08T10:50:47.257Z,16.43
2018-12-08T10:53:15.627Z,21.63
2018-12-08T10:55:44.079Z,23.63
2018-12-08T10:58:12.444Z,18.60
2018-12-08T11:00:46.179Z,20.87
2018-12-08T11:03:19.817Z,25.13
2018-12-08T11:05:48.170Z,19.07
2018-12-08T11:08:16.552Z,18.10
2018-12-08T11:10:44.898Z,20.40
2018-12-08T11:13:13.289Z,25.87
2018-12-08T11:15:41.647Z,20.67
2018-12-08T11:18:10.000Z,14.20
2018-12-08T11:20:38.362Z,14.63
2018-12-08T11:23:06.729Z,16.33
2018-12-08T11:25:35.103Z,17.47
2018-12-08T11:28:09.100Z,11.00
2018-12-08T11:30:37.484Z,16.20
2018-12-08T11:33:06.034Z,9.50
2018-12-08T11:35:34.439Z,9.83
2018-12-08T11:38:02.807Z,10.73
2018-12-08T11:40:31.275Z,11.40
2018-12-08T11:42:59.612Z,10.90
2018-12-08T11:45:28.135Z,10.70
2018-12-08T11:47:56.544Z,11.03
2018-12-08T11:50:25.054Z,9.37
2018-12-08T11:52:53.416Z,10.40
2018-12-08T11:55:29.966Z,12.80
2018-12-08T11:57:52.133Z,10.00
2018-12-08T12:00:20.665Z,10.80
2018-12-08T12:02:49.060Z,8.83
2018-12-08T12:05:17.420Z,13.10
2018-12-08T12:07:45.771Z,11.70
2018-12-08T12:10:14.421Z,13.53
2018-12-08T12:12:42.924Z,12.93
2018-12-08T12:15:11.282Z,11.83
2018-12-08T12:17:39.664Z,9.27
2018-12-08T12:20:08.305Z,9.53
2018-12-08T12:22:36.674Z,8.80
2018-12-08T12:25:05.750Z,7.93
2018-12-08T12:27:34.108Z,11.50
2018-12-08T12:30:02.479Z,12.93
2018-12-08T12:32:30.890Z,10.17
2018-12-08T12:34:59.336Z,10.13
2018-12-08T12:37:27.723Z,12.10
2018-12-08T12:39:56.086Z,12.57
2018-12-08T12:42:24.452Z,13.33
2018-12-08T12:44:52.871Z,12.47
2018-12-08T12:47:21.238Z,12.70
2018-12-08T12:49:49.610Z,12.50
2018-12-08T12:52:18.044Z,13.30
2018-12-08T12:54:46.423Z,11.07
2018-12-08T12:57:14.807Z,11.73
2018-12-08T12:59:43.219Z,16.60
2018-12-08T13:02:11.638Z,12.83
2018-12-08T13:04:40.099Z,12.53
2018-12-08T13:07:08.578Z,13.13
2018-12-08T13:09:36.941Z,12.33
2018-12-08T13:12:05.684Z,11.57
2018-12-08T13:14:34.095Z,13.43
2018-12-08T13:17:02.436Z,9.43
2018-12-08T13:19:31.026Z,10.57
2018-12-08T13:21:59.453Z,8.97
2018-12-08T13:24:32.256Z,14.50
2018-12-08T13:27:00.712Z,10.97
2018-12-08T13:29:29.202Z,13.93
2018-12-08T13:31:57.574Z,13.63
2018-12-08T13:34:28.483Z,9.43
2018-12-08T13:36:56.925Z,11.90
2018-12-08T13:39:25.297Z,11.97
2018-12-08T13:41:53.667Z,12.77
2018-12-08T13:44:37.536Z,12.07
2018-12-08T13:47:05.921Z,10.70
2018-12-08T13:49:35.882Z,12.00
2018-12-08T13:52:04.600Z,7.67
2018-12-08T13:54:48.698Z,5.67
2018-12-08T13:57:17.050Z,13.87
2018-12-08T13:59:56.585Z,9.57
2018-12-08T14:02:25.082Z,13.90
2018-12-08T14:04:53.478Z,16.00
2018-12-08T14:07:21.826Z,10.53
2018-12-08T14:09:50.675Z,18.80
2018-12-08T14:12:19.047Z,17.90
2018-12-08T14:14:47.384Z,13.80
2018-12-08T14:17:15.794Z,12.30
2018-12-08T14:19:44.170Z,19.97
2018-12-08T14:22:12.954Z,13.53
2018-12-08T14:24:41.740Z,11.77
2018-12-08T14:27:10.096Z,12.33
2018-12-08T14:29:38.494Z,14.03
2018-12-08T14:32:07.031Z,15.67
2018-12-08T14:34:35.428Z,16.93
2018-12-08T14:37:03.928Z,20.00
2018-12-08T14:39:32.307Z,16.57
2018-12-08T14:42:00.698Z,15.27
2018-12-08T14:44:29.073Z,10.37
2018-12-08T14:46:57.454Z,16.03
2018-12-08T14:49:25.796Z,11.77
2018-12-08T14:51:54.436Z,13.47
2018-12-08T14:54:23.021Z,13.53
2018-12-08T14:56:51.474Z,17.97
2018-12-08T14:59:19.872Z,13.23
2018-12-08T15:01:48.259Z,19.07
2018-12-08T15:04:16.574Z,20.20
2018-12-08T15:06:44.958Z,16.43
2018-12-08T15:09:13.307Z,14.30
2018-12-08T15:11:41.700Z,12.23
2018-12-08T15:14:10.151Z,17.40
2018-12-08T15:16:38.583Z,19.40
2018-12-08T15:19:07.035Z,13.37
2018-12-08T15:21:35.412Z,20.57
2018-12-08T15:24:03.854Z,13.90
2018-12-08T15:26:32.231Z,9.43
2018-12-08T15:29:00.616Z,16.53
2018-12-08T15:31:29.094Z,23.63
2018-12-08T15:33:57.511Z,20.13
2018-12-08T15:36:25.914Z,14.97
2018-12-08T15:38:54.510Z,19.87
2018-12-08T15:41:22.915Z,17.50
2018-12-08T15:43:51.315Z,14.43
2018-12-08T15:46:19.670Z,20.87
2018-12-08T15:48:48.030Z,13.67
2018-12-08T15:51:16.441Z,13.83
2018-12-08T15:53:44.915Z,10.60
2018-12-08T15:56:13.271Z,14.60
2018-12-08T15:58:41.671Z,15.33
2018-12-08T16:01:10.113Z,13.63
2018-12-08T16:03:38.539Z,13.63
2018-12-08T16:06:07.010Z,9.00
2018-12-08T16:08:35.404Z,15.53
2018-12-08T16:11:03.875Z,18.23
2018-12-08T16:13:32.282Z,16.20
2018-12-08T16:16:00.638Z,12.40
2018-12-08T16:18:29.149Z,13.23
2018-12-08T16:20:57.607Z,11.80
2018-12-08T16:23:26.000Z,15.47
2018-12-08T16:25:54.424Z,11.50
2018-12-08T16:28:22.774Z,15.43
2018-12-08T16:30:51.172Z,16.63
2018-12-08T16:33:19.632Z,18.70
2018-12-08T16:35:48.134Z,17.47
2018-12-08T16:38:16.467Z,12.50
2018-12-08T16:40:44.935Z,20.47
2018-12-08T16:43:13.290Z,15.60
2018-12-08T16:45:41.764Z,20.00
2018-12-08T16:48:10.124Z,23.17
2018-12-08T16:50:41.050Z,19.03
2018-12-08T16:53:09.724Z,15.17
2018-12-08T16:55:38.258Z,14.83
2018-12-08T16:58:06.623Z,18.00
2018-12-08T17:00:35.039Z,18.93
2018-12-08T17:03:03.679Z,20.40
2018-12-08T17:05:32.607Z,27.77
2018-12-08T17:08:01.043Z,21.33
2018-12-08T17:10:29.399Z,29.93
2018-12-08T17:12:57.796Z,19.13
2018-12-08T17:15:26.323Z,23.07
2018-12-08T17:17:55.207Z,24.50
2018-12-08T17:20:23.631Z,21.53
2018-12-08T17:22:52.202Z,22.23
2018-12-08T17:25:20.858Z,17.13
2018-12-08T17:27:49.239Z,17.33
2018-12-08T17:30:17.771Z,21.37
2018-12-08T17:32:46.142Z,15.73
2018-12-08T17:35:14.665Z,21.07
2018-12-08T17:37:43.156Z,18.80
2018-12-08T17:40:11.519Z,18.30
2018-12-08T17:42:40.063Z,19.63
2018-12-08T17:45:08.823Z,17.57
2018-12-08T17:47:37.330Z,21.07
2018-12-08T17:50:06.720Z,21.93
2018-12-08T17:52:35.068Z,16.60
2018-12-08T17:55:03.471Z,15.47
2018-12-08T17:57:31.814Z,21.73
2018-12-08T18:00:00.198Z,21.10
2018-12-08T18:02:28.782Z,18.00
2018-12-08T18:04:57.251Z,18.07
2018-12-08T18:07:25.703Z,19.87
2018-12-08T18:09:54.063Z,16.97
2018-12-08T18:12:22.501Z,19.43
2018-12-08T18:14:51.784Z,17.20
2018-12-08T18:17:20.267Z,21.13
2018-12-08T18:19:48.627Z,17.57
2018-12-08T18:22:17.154Z,21.37
2018-12-08T18:24:45.504Z,24.80
2018-12-08T18:27:14.120Z,18.80
2018-12-08T18:29:42.470Z,30.63
2018-12-08T18:32:10.831Z,16.20
2018-12-08T18:34:39.305Z,17.47
2018-12-08T18:37:07.692Z,13.77
2018-12-08T18:39:36.035Z,19.20
2018-12-08T18:42:04.495Z,18.83
2018-12-08T18:44:32.848Z,18.93
2018-12-08T18:47:01.229Z,13.50
2018-12-08T18:49:29.700Z,17.23
2018-12-08T18:51:58.175Z,16.67
2018-12-08T18:54:26.607Z,17.47
2018-12-08T18:56:55.067Z,19.83
2018-12-08T18:59:23.504Z,18.83
2018-12-08T19:01:51.876Z,18.70
2018-12-08T19:04:20.305Z,22.70
2018-12-08T19:06:48.719Z,16.20
2018-12-08T19:09:17.115Z,22.50
2018-12-08T19:11:45.539Z,16.17
2018-12-08T19:14:13.940Z,13.77
2018-12-08T19:16:49.086Z,16.40
2018-12-08T19:19:17.471Z,15.87
2018-12-08T19:21:45.847Z,17.13
2018-12-08T19:24:15.423Z,17.73
2018-12-08T19:26:44.979Z,14.77
2018-12-08T19:29:13.487Z,17.63
2018-12-08T19:31:42.315Z,14.40
2018-12-08T19:34:10.675Z,22.67
2018-12-08T19:36:39.031Z,17.73
2018-12-08T19:39:07.664Z,15.77
2018-12-08T19:41:36.186Z,16.90
2018-12-08T19:44:04.550Z,20.60
2018-12-08T19:46:33.031Z,19.33
2018-12-08T19:49:01.416Z,16.27
2018-12-08T19:51:29.796Z,20.63
2018-12-08T19:53:58.220Z,23.37
2018-12-08T19:56:26.759Z,13.90
2018-12-08T19:58:55.167Z,19.40
2018-12-08T20:01:23.501Z,16.77
2018-12-08T20:03:51.859Z,20.23
2018-12-08T20:06:20.404Z,21.80
2018-12-08T20:08:48.887Z,23.63
2018-12-08T20:11:17.384Z,25.67
2018-12-08T20:13:45.768Z,24.57
2018-12-08T20:16:14.150Z,23.20
2018-12-08T20:18:42.523Z,22.30
2018-12-08T20:21:10.886Z,30.07
2018-12-08T20:23:39.246Z,20.57
2018-12-08T20:26:07.647Z,28.77
2018-12-08T20:28:36.049Z,26.27
2018-12-08T20:31:04.486Z,22.80
2018-12-08T20:33:32.905Z,24.50
2018-12-08T20:36:01.309Z,30.63
2018-12-08T20:38:29.703Z,29.10
2018-12-08T20:40:58.099Z,25.63
2018-12-08T20:43:26.599Z,24.70
2018-12-08T20:45:55.004Z,21.20
2018-12-08T20:48:23.382Z,24.13
2018-12-08T20:50:51.811Z,25.77
2018-12-08T20:53:20.218Z,21.90
2018-12-08T20:55:48.704Z,24.70
2018-12-08T20:58:17.160Z,32.17
2018-12-08T21:00:45.596Z,28.67
2018-12-08T21:03:13.972Z,24.87
2018-12-08T21:05:42.476Z,31.13
2018-12-08T21:08:10.861Z,30.17
2018-12-08T21:10:39.399Z,35.27
2018-12-08T21:13:07.843Z,27.57
2018-12-08T21:15:36.385Z,27.17
2018-12-08T21:18:04.752Z,27.67
2018-12-08T21:20:33.245Z,38.57
2018-12-08T21:23:01.649Z,27.33
2018-12-08T21:25:30.105Z,33.63
2018-12-08T21:27:58.492Z,44.07
2018-12-08T21:30:26.859Z,35.57
2018-12-08T21:32:55.224Z,32.00
2018-12-08T21:35:23.687Z,38.40
2018-12-08T21:37:52.062Z,34.47
2018-12-08T21:40:28.478Z,41.07
2018-12-08T21:42:56.860Z,32.77
2018-12-08T21:45:25.951Z,32.73
2018-12-08T21:47:54.305Z,40.70
2018-12-08T21:50:22.701Z,36.80
2018-12-08T21:52:51.053Z,31.00
2018-12-08T21:55:19.468Z,34.77
2018-12-08T21:57:47.838Z,37.43
2018-12-08T22:00:16.243Z,30.97
2018-12-08T22:02:44.707Z,37.23
2018-12-08T22:05:13.186Z,44.70
2018-12-08T22:07:41.582Z,43.50
2018-12-08T22:10:09.949Z,36.57
2018-12-08T22:12:38.319Z,52.10
2018-12-08T22:15:13.090Z,47.97
2018-12-08T22:17:42.746Z,41.53
2018-12-08T22:20:11.116Z,44.37
2018-12-08T22:22:39.483Z,46.27
2018-12-08T22:25:07.882Z,46.57
2018-12-08T22:27:36.268Z,45.83
2018-12-08T22:30:05.480Z,45.30
2018-12-08T22:32:33.820Z,47.30
2018-12-08T22:35:02.187Z,54.17
2018-12-08T22:37:30.567Z,48.37
2018-12-08T22:39:58.963Z,60.83
2018-12-08T22:42:27.340Z,46.83
2018-12-08T22:44:55.711Z,44.10
2018-12-08T22:47:24.104Z,41.87
2018-12-08T22:49:52.464Z,44.93
2018-12-08T22:52:20.851Z,47.40
2018-12-08T22:54:49.228Z,50.30
2018-12-08T22:57:17.628Z,66.30
2018-12-08T22:59:46.054Z,50.07
2018-12-08T23:02:14.516Z,58.87
2018-12-08T23:04:42.899Z,46.00
2018-12-08T23:07:11.264Z,49.97
2018-12-08T23:09:39.662Z,55.07
2018-12-08T23:12:08.156Z,54.10
2018-12-08T23:14:36.644Z,45.93
2018-12-08T23:17:04.999Z,40.67
2018-12-08T23:19:33.423Z,44.83
2018-12-08T23:22:01.802Z,44.63
2018-12-08T23:24:30.223Z,38.50
2018-12-08T23:26:58.629Z,41.23
2018-12-08T23:29:27.003Z,41.90
2018-12-08T23:31:55.523Z,35.87
2018-12-08T23:34:23.872Z,34.13
2018-12-08T23:36:52.233Z,35.63
2018-12-08T23:39:20.619Z,37.10
2018-12-08T23:41:49.122Z,31.67
2018-12-08T23:44:17.519Z,35.13
2018-12-08T23:46:45.911Z,31.27
2018-12-08T23:49:14.291Z,37.90
2018-12-08T23:51:42.690Z,37.37
2018-12-08T23:54:11.046Z,39.27
2018-12-08T23:56:39.468Z,31.83
2018-12-08T23:59:07.907Z,34.17
